Time;durP1;ratioP1;P1;durP2;ratioP2;P2;SDS_P1;SDS_P2;PMS_P1;PMS_P2;Temp;Humidity;BMP_temperature;BMP_pressure;BME280_temperature;BME280_humidity;BME280_pressure;Samples;Min_cycle;Max_cycle;Signal;HPM_P1;HPM_P2
2022/05/13 14:20:17;;;;;;;4.50;1.67;;;20.60;92.40;;;;;;5089349;27;20542;-57
2022/05/13 14:23:05;;;;;;;3.43;1.50;;;21.40;91.70;;;;;;5089205;28;20194;-57
2022/05/13 14:25:38;;;;;;;3.87;1.70;;;21.50;91.80;;;;;;5089082;28;20295;-58
2022/05/13 14:28:08;;;;;;;3.60;1.60;;;21.50;92.00;;;;;;5088877;28;20570;-59
2022/05/13 14:30:35;;;;;;;3.73;1.40;;;21.60;91.90;;;;;;5088969;28;20254;-56
2022/05/13 14:33:03;;;;;;;6.67;1.60;;;21.60;91.60;;;;;;5088750;28;20236;-57
2022/05/13 14:35:33;;;;;;;4.07;1.80;;;21.60;91.40;;;;;;5088923;28;20558;-59
2022/05/13 14:38:03;;;;;;;6.20;2.20;;;21.70;91.60;;;;;;5088542;28;20184;-58
2022/05/13 14:40:34;;;;;;;7.17;1.90;;;21.70;91.20;;;;;;5088459;28;20211;-59
2022/05/13 14:43:05;;;;;;;2.17;1.50;;;21.60;91.30;;;;;;5088567;28;20630;-58
2022/05/13 14:45:35;;;;;;;3.90;1.70;;;21.60;91.30;;;;;;5088873;28;20606;-58
2022/05/13 14:48:16;;;;;;;6.27;1.90;;;21.60;91.30;;;;;;5088253;28;20289;-59
2022/05/13 14:50:46;;;;;;;8.13;1.80;;;21.50;91.50;;;;;;5088535;28;20215;-58
2022/05/13 14:53:17;;;;;;;3.73;1.83;;;21.60;91.70;;;;;;5088155;28;20206;-60
2022/05/13 14:55:49;;;;;;;2.47;1.57;;;21.60;91.50;;;;;;5088457;28;20192;-57
2022/05/13 14:58:29;;;;;;;5.90;1.80;;;21.60;91.70;;;;;;5088441;28;20188;-58
2022/05/13 15:00:58;;;;;;;3.83;1.70;;;21.60;91.30;;;;;;5088561;28;20618;-59
2022/05/13 15:03:32;;;;;;;7.73;2.13;;;21.60;91.40;;;;;;5088505;28;20205;-58
2022/05/13 15:06:31;;;;;;;4.13;2.20;;;21.60;91.40;;;;;;5087952;28;20195;-57
2022/05/13 15:09:07;;;;;;;5.10;1.77;;;21.70;91.50;;;;;;5085194;28;20653;-57
2022/05/13 15:11:34;;;;;;;5.07;2.10;;;21.60;91.30;;;;;;5087900;28;20199;-57
2022/05/13 15:14:04;;;;;;;4.87;2.00;;;21.60;91.50;;;;;;5088115;28;20204;-59
2022/05/13 15:16:31;;;;;;;8.27;2.27;;;21.70;91.50;;;;;;5088110;28;20200;-58
2022/05/13 15:18:59;;;;;;;3.97;1.80;;;21.60;91.40;;;;;;5086681;28;20269;-59
2022/05/13 15:21:28;;;;;;;4.33;1.83;;;21.50;91.00;;;;;;5074049;28;20209;-59
2022/05/13 15:23:54;;;;;;;4.97;1.90;;;21.50;91.30;;;;;;5074492;28;20223;-60
2022/05/13 15:26:26;;;;;;;5.80;1.80;;;21.50;91.40;;;;;;5074628;28;20603;-58
2022/05/13 15:28:53;;;;;;;5.40;1.90;;;21.50;91.80;;;;;;5074161;28;20568;-56
2022/05/13 15:31:20;;;;;;;4.93;1.87;;;21.50;91.60;;;;;;5074030;28;20216;-57
2022/05/13 15:33:46;;;;;;;5.70;2.27;;;21.50;91.80;;;;;;5074247;28;20204;-58
2022/05/13 15:36:20;;;;;;;4.00;1.87;;;21.50;91.70;;;;;;5074203;28;20205;-59
2022/05/13 15:38:48;;;;;;;4.70;1.67;;;21.50;91.70;;;;;;5074121;28;20191;-58
2022/05/13 15:41:16;;;;;;;4.60;1.80;;;21.40;91.50;;;;;;5074165;28;20704;-57
2022/05/13 15:43:45;;;;;;;3.00;1.80;;;21.40;91.40;;;;;;5073595;28;20513;-58
2022/05/13 15:46:16;;;;;;;5.17;1.97;;;21.40;91.70;;;;;;5074128;28;20212;-59
2022/05/13 15:48:42;;;;;;;6.13;1.93;;;21.50;91.80;;;;;;5073717;28;20221;-57
2022/05/13 15:53:55;;;;;;;4.43;2.00;;;21.50;91.70;;;;;;5073601;28;20547;-58
2022/05/13 15:56:28;;;;;;;5.70;1.80;;;21.60;91.80;;;;;;5073938;28;20658;-57
2022/05/13 15:58:56;;;;;;;3.60;1.60;;;21.50;91.70;;;;;;5073833;28;20556;-57
2022/05/13 16:01:23;;;;;;;2.67;1.70;;;21.50;91.80;;;;;;5073928;28;20600;-58
2022/05/13 16:03:50;;;;;;;5.90;1.80;;;21.50;91.90;;;;;;5073715;28;20214;-58
2022/05/13 16:06:17;;;;;;;4.60;1.90;;;21.60;91.90;;;;;;5073873;28;20211;-57
2022/05/13 16:08:44;;;;;;;4.47;2.20;;;21.60;91.90;;;;;;5073486;28;20229;-58
2022/05/13 16:11:16;;;;;;;4.97;2.10;;;21.70;91.90;;;;;;5073587;28;20261;-59
2022/05/13 16:13:47;;;;;;;3.97;2.03;;;21.70;91.70;;;;;;5073360;28;20192;-58
2022/05/13 16:16:18;;;;;;;8.77;2.47;;;21.70;91.70;;;;;;5073610;28;20197;-58
2022/05/13 16:18:46;;;;;;;4.07;1.80;;;21.70;91.70;;;;;;5073044;28;20612;-59
2022/05/13 16:21:16;;;;;;;5.13;2.20;;;21.70;91.90;;;;;;5073239;28;20205;-59
2022/05/13 16:23:46;;;;;;;5.13;1.97;;;21.70;91.80;;;;;;5073247;28;20219;-57
2022/05/13 16:26:16;;;;;;;4.80;2.03;;;21.60;91.80;;;;;;5073373;28;20208;-56
2022/05/13 16:28:43;;;;;;;3.47;1.90;;;21.60;91.90;;;;;;5073101;28;20207;-58
2022/05/13 16:31:11;;;;;;;6.50;2.53;;;21.60;92.00;;;;;;5072346;28;20205;-57
2022/05/13 16:33:40;;;;;;;4.03;1.97;;;21.60;92.20;;;;;;5073130;28;20303;-58
2022/05/13 16:36:08;;;;;;;4.77;2.30;;;21.60;92.40;;;;;;5073103;28;20205;-57
2022/05/13 16:38:35;;;;;;;7.13;1.80;;;21.50;92.40;;;;;;5072931;28;20666;-60
2022/05/13 16:41:04;;;;;;;6.03;2.00;;;21.30;92.40;;;;;;5073040;28;20360;-59
2022/05/13 16:43:32;;;;;;;6.03;2.40;;;21.30;92.50;;;;;;5072798;28;20578;-60
2022/05/13 16:45:59;;;;;;;6.50;2.40;;;21.20;92.70;;;;;;5073019;28;20226;-56
2022/05/13 16:48:25;;;;;;;11.20;2.60;;;21.20;92.80;;;;;;5072809;28;20225;-57
2022/05/13 16:50:52;;;;;;;5.20;2.10;;;21.10;93.00;;;;;;5072740;28;20216;-58
2022/05/13 16:53:19;;;;;;;4.30;2.23;;;21.00;93.00;;;;;;5072542;28;20211;-58
2022/05/13 16:55:48;;;;;;;5.80;2.13;;;21.00;93.10;;;;;;5072673;28;20207;-59
2022/05/13 16:58:15;;;;;;;3.97;2.27;;;21.00;93.20;;;;;;5072698;28;20202;-56
2022/05/13 17:00:44;;;;;;;6.40;2.43;;;20.90;93.70;;;;;;5072583;28;20683;-59
2022/05/13 17:03:10;;;;;;;4.03;2.30;;;20.80;93.70;;;;;;5072395;28;20212;-59
2022/05/13 17:05:38;;;;;;;6.03;2.20;;;20.70;93.80;;;;;;5072309;28;20660;-60
2022/05/13 17:08:07;;;;;;;7.03;2.35;;;20.70;93.90;;;;;;5071976;28;20526;-57
2022/05/13 17:16:16;;;;;;;8.27;2.70;;;20.50;94.20;;;;;;5072324;28;20272;-61
2022/05/13 17:21:30;;;;;;;6.43;2.17;;;20.40;94.30;;;;;;5072118;28;20183;-58
2022/05/13 17:23:57;;;;;;;8.53;2.30;;;20.30;94.40;;;;;;5072281;28;20205;-59
2022/05/13 17:26:23;;;;;;;4.40;2.33;;;20.20;94.50;;;;;;5072174;28;20205;-56
2022/05/13 17:28:51;;;;;;;7.30;2.73;;;20.20;94.60;;;;;;5072070;28;20224;-58
2022/05/13 17:31:19;;;;;;;4.57;2.17;;;20.20;94.70;;;;;;5072120;28;20205;-58
2022/05/13 17:33:46;;;;;;;6.73;2.30;;;20.10;94.70;;;;;;5071898;28;20205;-59
2022/05/13 17:36:14;;;;;;;5.47;2.33;;;20.10;94.80;;;;;;5072038;28;20213;-60
2022/05/13 17:38:40;;;;;;;4.47;2.30;;;20.00;94.80;;;;;;5071677;28;20227;-60
2022/05/13 17:41:08;;;;;;;4.00;2.23;;;20.00;94.90;;;;;;5071869;28;20201;-57
2022/05/13 17:43:36;;;;;;;4.30;2.50;;;19.90;94.90;;;;;;5071534;28;20685;-57
2022/05/13 17:46:04;;;;;;;4.53;2.53;;;19.80;95.00;;;;;;5072443;28;20209;-58
2022/05/13 17:48:32;;;;;;;5.73;2.63;;;19.80;95.00;;;;;;5071733;28;20212;-57
2022/05/13 17:50:59;;;;;;;6.53;2.90;;;19.80;95.10;;;;;;5071494;28;20304;-59
2022/05/13 17:53:27;;;;;;;7.53;3.60;;;19.70;95.30;;;;;;5071522;28;20205;-59
2022/05/13 17:55:54;;;;;;;6.23;3.00;;;19.70;95.40;;;;;;5071416;28;20314;-62
2022/05/13 17:58:21;;;;;;;7.57;2.93;;;19.60;95.60;;;;;;5071519;28;20564;-59
2022/05/13 18:00:48;;;;;;;8.00;3.27;;;19.50;95.60;;;;;;5071285;28;20285;-58
2022/05/13 18:03:16;;;;;;;6.60;2.93;;;19.60;95.70;;;;;;5071461;28;20212;-59
2022/05/13 18:05:44;;;;;;;7.57;3.10;;;19.50;95.80;;;;;;5071480;28;20667;-59
2022/05/13 18:08:12;;;;;;;8.40;2.80;;;19.40;95.80;;;;;;5071723;28;20349;-57
2022/05/13 18:10:40;;;;;;;6.63;3.00;;;19.40;95.90;;;;;;5071390;28;20235;-59
2022/05/13 18:13:07;;;;;;;4.77;2.93;;;19.30;96.00;;;;;;5071574;28;20548;-58
2022/05/13 18:15:34;;;;;;;6.90;2.97;;;19.30;96.10;;;;;;5071311;28;20207;-59
2022/05/13 18:18:30;;;;;;;7.03;3.27;;;19.30;96.20;;;;;;5071466;28;20227;-58
2022/05/13 18:20:49;;;;;;;6.17;3.20;;;19.20;96.20;;;;;;5071227;28;20223;-61
2022/05/13 18:23:17;;;;;;;6.67;2.90;;;19.20;96.30;;;;;;5071677;28;20228;-58
2022/05/13 18:25:45;;;;;;;9.10;3.27;;;19.20;96.40;;;;;;5071372;28;20622;-59
2022/05/13 18:28:12;;;;;;;6.73;3.23;;;19.10;96.40;;;;;;5071495;28;20215;-58
2022/05/13 18:30:39;;;;;;;8.20;2.80;;;19.10;96.60;;;;;;5071547;28;20228;-58
2022/05/13 18:33:06;;;;;;;5.63;2.60;;;19.00;96.80;;;;;;5071513;28;20211;-58
2022/05/13 18:35:33;;;;;;;4.17;2.57;;;19.00;97.00;;;;;;5071357;28;20211;-58
2022/05/13 18:38:01;;;;;;;7.43;2.70;;;18.80;97.50;;;;;;5071506;28;20660;-58
2022/05/13 18:46:07;;;;;;;6.57;3.00;;;18.50;97.80;;;;;;5071786;28;20188;-59
2022/05/13 18:48:35;;;;;;;8.40;3.60;;;18.50;97.80;;;;;;5071226;28;20636;-57
2022/05/13 18:51:02;;;;;;;5.90;3.03;;;18.50;97.90;;;;;;5071177;28;20235;-58
2022/05/13 18:53:31;;;;;;;5.60;2.90;;;18.40;97.90;;;;;;5071464;28;20540;-58
2022/05/13 18:55:57;;;;;;;6.17;3.00;;;18.40;98.00;;;;;;5073720;28;20201;-57
2022/05/13 18:58:26;;;;;;;6.00;3.23;;;18.40;98.10;;;;;;5074861;28;20266;-60
2022/05/13 19:00:53;;;;;;;4.80;2.90;;;18.30;98.30;;;;;;5074605;28;20204;-58
2022/05/13 19:03:20;;;;;;;4.77;3.00;;;18.30;98.40;;;;;;5074706;28;20210;-59
2022/05/13 19:05:47;;;;;;;7.70;3.63;;;18.20;98.50;;;;;;5074779;28;20222;-57
2022/05/13 19:08:14;;;;;;;7.27;3.63;;;18.10;98.80;;;;;;5074311;28;20228;-61
2022/05/13 19:10:44;;;;;;;5.23;3.47;;;18.10;98.90;;;;;;5074803;28;20678;-60
2022/05/13 19:13:11;;;;;;;5.80;3.53;;;18.00;98.90;;;;;;5074917;28;20207;-58
2022/05/13 19:15:39;;;;;;;7.20;3.80;;;18.00;99.00;;;;;;5074832;28;20300;-58
2022/05/13 19:18:06;;;;;;;14.90;9.00;;;18.00;99.00;;;;;;5074365;28;20244;-58
2022/05/13 19:20:33;;;;;;;13.03;6.20;;;17.90;99.10;;;;;;5074698;28;20549;-61
2022/05/13 19:23:00;;;;;;;10.27;5.97;;;17.90;99.20;;;;;;5074623;28;20211;-57
2022/05/13 19:25:27;;;;;;;11.47;6.27;;;17.90;99.30;;;;;;5074532;28;20212;-59
2022/05/13 19:27:57;;;;;;;9.17;5.10;;;17.90;99.40;;;;;;5074634;28;20688;-59
2022/05/13 19:30:25;;;;;;;6.93;4.20;;;17.80;99.50;;;;;;5073987;28;20221;-58
2022/05/13 19:32:52;;;;;;;10.37;4.70;;;17.80;99.80;;;;;;5074026;28;20220;-59
2022/05/13 19:35:19;;;;;;;4.80;3.20;;;17.70;99.90;;;;;;5074121;28;20212;-59
2022/05/13 19:37:47;;;;;;;7.00;3.53;;;17.70;99.90;;;;;;5074575;28;20206;-58
2022/05/13 19:40:15;;;;;;;8.27;3.30;;;17.60;99.90;;;;;;5074212;28;20207;-58
2022/05/13 19:42:42;;;;;;;11.33;4.13;;;17.50;99.90;;;;;;5074458;28;20676;-57
2022/05/13 19:45:12;;;;;;;8.07;3.47;;;17.50;99.90;;;;;;5074166;28;20201;-58
2022/05/13 19:47:39;;;;;;;6.37;3.87;;;17.50;99.90;;;;;;5074384;28;20662;-58
2022/05/13 19:50:07;;;;;;;6.00;3.83;;;17.40;99.90;;;;;;5074184;28;20678;-58
2022/05/13 19:52:34;;;;;;;7.27;4.37;;;17.40;99.90;;;;;;5074009;28;20216;-58
2022/05/13 19:55:01;;;;;;;7.53;4.47;;;17.30;99.90;;;;;;5073887;28;20213;-58
2022/05/13 19:57:27;;;;;;;8.50;4.90;;;17.20;99.90;;;;;;5073923;28;20205;-59
2022/05/13 19:59:54;;;;;;;11.50;4.67;;;17.20;99.90;;;;;;5073938;28;20216;-58
2022/05/13 20:02:23;;;;;;;8.50;5.10;;;17.10;99.90;;;;;;5073887;28;20201;-59
2022/05/13 20:12:59;;;;;;;34.70;19.10;;;16.80;99.90;;;;;;5073639;28;20188;-58
2022/05/13 20:15:27;;;;;;;22.33;12.47;;;16.70;99.90;;;;;;5073358;28;20208;-58
2022/05/13 20:17:55;;;;;;;17.17;9.60;;;16.70;99.90;;;;;;5073508;28;20823;-57
2022/05/13 20:23:16;;;;;;;15.37;8.00;;;16.60;99.90;;;;;;5048405;28;20200;-59
2022/05/13 20:25:42;;;;;;;15.87;7.23;;;16.50;99.90;;;;;;5073199;28;20304;-59
2022/05/13 20:28:09;;;;;;;15.30;7.37;;;16.50;99.90;;;;;;5073046;28;20209;-57
2022/05/13 20:30:36;;;;;;;11.87;6.33;;;16.50;99.90;;;;;;5073590;28;20235;-59
2022/05/13 20:33:04;;;;;;;13.90;7.33;;;16.50;99.90;;;;;;5073188;28;20200;-58
2022/05/13 20:35:33;;;;;;;21.53;12.83;;;16.40;99.90;;;;;;5073274;28;20463;-56
2022/05/13 20:38:00;;;;;;;17.13;9.90;;;16.40;99.90;;;;;;5073070;28;20207;-58
2022/05/13 20:40:28;;;;;;;17.90;9.13;;;16.40;99.90;;;;;;5073188;28;20200;-58
2022/05/13 20:42:55;;;;;;;10.43;6.50;;;16.40;99.90;;;;;;5073076;28;20220;-57
2022/05/13 20:45:22;;;;;;;12.07;6.50;;;16.40;99.90;;;;;;5072942;28;20307;-58
2022/05/13 20:47:49;;;;;;;12.00;6.23;;;16.40;99.90;;;;;;5073320;28;20204;-59
2022/05/13 20:50:19;;;;;;;10.63;6.10;;;16.40;99.90;;;;;;5072794;28;20247;-57
2022/05/13 20:52:46;;;;;;;12.47;6.10;;;16.40;99.90;;;;;;5072902;28;20185;-57
2022/05/13 20:55:14;;;;;;;10.37;6.07;;;16.40;99.90;;;;;;5072596;28;20278;-58
2022/05/13 20:57:41;;;;;;;11.57;6.47;;;16.40;99.90;;;;;;5072565;28;20205;-58
2022/05/13 21:00:09;;;;;;;13.90;7.13;;;16.40;99.90;;;;;;5072796;28;20201;-59
2022/05/13 21:02:35;;;;;;;14.63;7.63;;;16.40;99.90;;;;;;5072662;28;20685;-57
2022/05/13 21:05:02;;;;;;;11.87;7.40;;;16.30;99.90;;;;;;5072578;28;20207;-60
2022/05/13 21:07:32;;;;;;;17.13;7.23;;;16.30;99.90;;;;;;5072383;28;20304;-58
2022/05/13 21:09:59;;;;;;;18.37;10.13;;;16.30;99.90;;;;;;5072108;28;20224;-58
2022/05/13 21:12:28;;;;;;;22.87;12.47;;;16.30;99.90;;;;;;5072252;28;20666;-54
2022/05/13 21:14:54;;;;;;;16.50;8.87;;;16.30;99.90;;;;;;5072052;28;20266;-59
2022/05/13 21:17:24;;;;;;;18.10;8.77;;;16.30;99.90;;;;;;5071879;28;20681;-58
2022/05/13 21:19:51;;;;;;;13.10;7.87;;;16.30;99.90;;;;;;5072075;28;20232;-57
2022/05/13 21:22:18;;;;;;;12.90;8.00;;;16.30;99.90;;;;;;5072296;28;20223;-57
2022/05/13 21:24:46;;;;;;;10.27;6.70;;;16.30;99.90;;;;;;5072433;28;20209;-56
2022/05/13 21:27:14;;;;;;;10.27;6.47;;;16.30;99.90;;;;;;5072234;28;20208;-58
2022/05/13 21:29:42;;;;;;;10.57;6.10;;;16.30;99.90;;;;;;5072162;28;20205;-60
2022/05/13 21:37:37;;;;;;;13.83;7.93;;;16.30;99.90;;;;;;5072005;28;20188;-58
2022/05/13 21:40:07;;;;;;;14.57;7.77;;;16.30;99.90;;;;;;5072098;28;20203;-57
2022/05/13 21:42:34;;;;;;;12.50;7.23;;;16.40;99.90;;;;;;5072120;28;20201;-56
2022/05/13 21:45:01;;;;;;;16.20;7.20;;;16.40;99.90;;;;;;5071968;28;20211;-58
2022/05/13 21:47:28;;;;;;;11.87;7.13;;;16.40;99.90;;;;;;5071998;28;20632;-57
2022/05/13 21:49:55;;;;;;;12.07;6.93;;;16.40;99.90;;;;;;5071838;28;20236;-58
2022/05/13 21:52:22;;;;;;;13.43;7.03;;;16.40;99.90;;;;;;5072056;28;20570;-57
2022/05/13 21:54:49;;;;;;;10.97;6.53;;;16.40;99.90;;;;;;5071595;28;20216;-59
2022/05/13 21:57:20;;;;;;;12.40;7.20;;;16.40;99.90;;;;;;5071694;28;20204;-57
2022/05/13 21:59:48;;;;;;;12.27;6.63;;;16.50;99.90;;;;;;5071881;28;20215;-56
2022/05/13 22:02:15;;;;;;;13.03;6.60;;;16.50;99.90;;;;;;5071903;28;20204;-59
2022/05/13 22:04:42;;;;;;;11.13;6.50;;;16.50;99.90;;;;;;5071777;28;20673;-58
2022/05/13 22:07:09;;;;;;;10.47;5.80;;;16.50;99.90;;;;;;5071736;28;20211;-57
2022/05/13 22:09:37;;;;;;;11.90;6.57;;;16.50;99.90;;;;;;5071792;28;20595;-57
2022/05/13 22:12:05;;;;;;;11.03;5.87;;;16.50;99.90;;;;;;5071429;28;20229;-57
2022/05/13 22:14:33;;;;;;;10.33;6.30;;;16.50;99.90;;;;;;5071850;28;20201;-58
2022/05/13 22:17:00;;;;;;;11.03;6.23;;;16.50;99.90;;;;;;5071339;28;20208;-57
2022/05/13 22:19:27;;;;;;;12.90;6.77;;;16.50;99.90;;;;;;5071639;28;20232;-56
2022/05/13 22:21:54;;;;;;;12.47;7.03;;;16.50;99.90;;;;;;5071631;28;20552;-58
2022/05/13 22:24:21;;;;;;;11.60;6.67;;;16.50;99.90;;;;;;5071526;28;20200;-60
2022/05/13 22:26:49;;;;;;;15.23;7.33;;;16.50;99.90;;;;;;5071505;28;20557;-57
2022/05/13 22:29:17;;;;;;;10.33;6.70;;;16.50;99.90;;;;;;5071394;28;20216;-56
2022/05/13 22:31:45;;;;;;;13.57;7.23;;;16.40;99.90;;;;;;5075435;28;20224;-56
2022/05/13 22:34:13;;;;;;;11.23;6.13;;;16.30;99.90;;;;;;5075614;28;20220;-57
2022/05/13 22:36:40;;;;;;;11.17;6.17;;;16.30;99.90;;;;;;5075442;28;20204;-57
2022/05/13 22:39:07;;;;;;;23.40;13.50;;;16.30;99.90;;;;;;5075419;28;20227;-57
2022/05/13 22:41:34;;;;;;;17.23;9.47;;;16.30;99.90;;;;;;5075435;28;20207;-57
2022/05/13 22:44:01;;;;;;;12.97;8.13;;;16.20;99.90;;;;;;5075215;28;20208;-58
2022/05/13 22:46:28;;;;;;;9.07;6.30;;;16.20;99.90;;;;;;5075248;28;20204;-58
2022/05/13 22:48:56;;;;;;;9.97;5.87;;;16.20;99.90;;;;;;5075046;28;20462;-58
2022/05/13 22:51:23;;;;;;;7.93;5.30;;;16.10;99.90;;;;;;5075197;28;20221;-57
2022/05/13 22:53:50;;;;;;;10.73;5.17;;;16.10;99.90;;;;;;5074928;28;20201;-57
2022/05/13 22:56:17;;;;;;;9.50;5.47;;;16.10;99.90;;;;;;5074750;28;20208;-57
2022/05/13 22:58:44;;;;;;;8.13;5.17;;;16.10;99.90;;;;;;5074584;28;20543;-56
2022/05/13 23:01:12;;;;;;;10.70;5.13;;;16.00;99.90;;;;;;5075072;28;20200;-57
2022/05/13 23:03:39;;;;;;;8.63;5.13;;;16.00;99.90;;;;;;5074822;28;20204;-56
2022/05/13 23:11:36;;;;;;;11.43;5.70;;;15.90;99.90;;;;;;5074700;28;20212;-57
2022/05/13 23:14:03;;;;;;;12.57;5.73;;;15.90;99.90;;;;;;5074522;28;20240;-57
2022/05/13 23:16:33;;;;;;;8.63;5.13;;;15.80;99.90;;;;;;5074684;28;20522;-58
2022/05/13 23:19:03;;;;;;;7.93;5.53;;;15.90;99.90;;;;;;5074135;28;20255;-58
2022/05/13 23:21:31;;;;;;;9.20;5.40;;;15.80;99.90;;;;;;5074780;28;20666;-59
2022/05/13 23:23:58;;;;;;;10.93;5.30;;;15.80;99.90;;;;;;5074130;28;20208;-56
2022/05/13 23:26:26;;;;;;;13.17;6.20;;;15.80;99.90;;;;;;5074552;28;20201;-58
2022/05/13 23:28:54;;;;;;;9.77;4.90;;;15.80;99.90;;;;;;5074421;28;20684;-57
2022/05/13 23:31:21;;;;;;;9.80;5.80;;;15.80;99.90;;;;;;5074304;28;20221;-57
2022/05/13 23:33:48;;;;;;;10.77;6.17;;;15.70;99.90;;;;;;5073968;28;20212;-57
2022/05/13 23:36:14;;;;;;;12.40;6.03;;;15.70;99.90;;;;;;5074461;28;20573;-58
2022/05/13 23:38:43;;;;;;;8.67;5.93;;;15.70;99.90;;;;;;5074299;28;20205;-58
2022/05/13 23:41:11;;;;;;;9.97;5.57;;;15.70;99.90;;;;;;5073899;28;20207;-57
2022/05/13 23:43:38;;;;;;;10.40;6.20;;;15.60;99.90;;;;;;5074191;28;20223;-57
2022/05/13 23:46:06;;;;;;;8.47;5.10;;;15.60;99.90;;;;;;5074338;28;20205;-58
2022/05/13 23:48:34;;;;;;;12.93;5.87;;;15.60;99.90;;;;;;5074128;28;20371;-56
2022/05/13 23:51:01;;;;;;;8.87;4.90;;;15.60;99.90;;;;;;5073777;28;20220;-58
2022/05/13 23:56:17;;;;;;;8.47;4.83;;;15.50;99.90;;;;;;5073888;28;20183;-57
2022/05/13 23:58:44;;;;;;;6.33;4.50;;;15.50;99.90;;;;;;5073948;28;20200;-57
